Time;durP1;ratioP1;P1;durP2;ratioP2;P2;SDS_P1;SDS_P2;PMS_P1;PMS_P2;Temp;Humidity;BMP_temperature;BMP_pressure;BME280_temperature;BME280_humidity;BME280_pressure;Samples;Min_cycle;Max_cycle;Signal;HPM_P1;HPM_P2
2022/10/06 00:02:30;;;;;;;5.35;0.80;;;13.60;92.70;;;;;;4905082;29;20040;-87
2022/10/06 00:05:08;;;;;;;2.35;0.30;;;13.60;92.70;;;;;;4899429;29;20047;-87
2022/10/06 00:07:39;;;;;;;4.55;0.20;;;13.60;92.70;;;;;;4886742;29;20044;-87
2022/10/06 00:10:10;;;;;;;3.78;0.20;;;13.50;92.70;;;;;;4885106;29;20143;-87
2022/10/06 00:12:50;;;;;;;4.28;0.20;;;13.50;92.80;;;;;;4915912;29;20048;-87
2022/10/06 00:15:24;;;;;;;4.13;0.90;;;13.50;92.80;;;;;;4900090;29;20044;-87
2022/10/06 00:18:05;;;;;;;3.38;0.80;;;13.50;92.80;;;;;;4892540;29;20135;-87
2022/10/06 00:20:58;;;;;;;4.20;0.40;;;13.40;92.80;;;;;;4894264;29;20075;-87
2022/10/06 00:23:38;;;;;;;3.33;0.22;;;13.40;92.80;;;;;;4884770;29;20048;-87
2022/10/06 00:29:45;;;;;;;5.00;0.40;;;13.40;92.80;;;;;;4862253;29;20134;-86
2022/10/06 00:32:49;;;;;;;4.05;0.50;;;13.30;92.80;;;;;;4882387;29;20071;-86
2022/10/06 00:35:59;;;;;;;3.65;0.80;;;13.30;92.70;;;;;;4883225;29;20048;-86
2022/10/06 00:44:00;;;;;;;2.97;1.00;;;13.30;92.60;;;;;;4876365;29;20044;-86
2022/10/06 00:47:02;;;;;;;4.28;0.50;;;13.30;92.40;;;;;;4850976;29;20053;-87
2022/10/06 00:50:27;;;;;;;8.05;0.73;;;13.40;92.40;;;;;;4855995;29;20064;-86
2022/10/06 00:53:47;;;;;;;4.82;0.50;;;13.40;92.30;;;;;;4847966;29;20060;-87
2022/10/06 00:56:34;;;;;;;3.15;0.60;;;13.40;92.20;;;;;;4856783;29;20138;-85
2022/10/06 00:59:27;;;;;;;4.05;0.68;;;13.40;92.20;;;;;;4876612;29;20052;-86
2022/10/06 01:02:17;;;;;;;3.90;0.55;;;13.40;92.20;;;;;;4865350;29;20045;-86
2022/10/06 01:05:04;;;;;;;1.30;0.30;;;13.40;92.10;;;;;;4883480;29;20096;-86
2022/10/06 01:07:43;;;;;;;;;;;13.30;92.10;;;;;;4885348;29;20331;-87
2022/10/06 01:10:22;;;;;;;4.45;0.47;;;13.30;92.20;;;;;;4870442;29;19963;-85
2022/10/06 01:13:30;;;;;;;4.18;0.47;;;13.20;92.10;;;;;;4873671;29;20044;-86
2022/10/06 01:16:23;;;;;;;3.83;0.43;;;13.30;92.00;;;;;;4898698;29;20040;-86
2022/10/06 01:18:57;;;;;;;4.53;1.00;;;13.20;92.00;;;;;;4874622;29;20049;-85
2022/10/06 01:22:20;;;;;;;5.72;0.70;;;13.20;91.90;;;;;;4872179;29;20049;-86
2022/10/06 01:25:09;;;;;;;7.50;0.60;;;13.30;91.80;;;;;;4881590;29;20053;-85
2022/10/06 01:27:52;;;;;;;5.45;0.68;;;13.20;91.80;;;;;;4902919;29;20044;-86
2022/10/06 01:30:59;;;;;;;4.85;0.50;;;13.20;91.70;;;;;;4903191;29;20040;-86
2022/10/06 01:34:10;;;;;;;4.35;0.40;;;13.20;91.70;;;;;;4893537;29;20036;-86
2022/10/06 01:37:46;;;;;;;4.18;0.50;;;13.10;91.70;;;;;;4875494;29;20049;-86
2022/10/06 01:41:06;;;;;;;4.03;0.40;;;13.10;91.70;;;;;;4893050;29;20056;-86
2022/10/06 01:47:22;;;;;;;4.18;0.30;;;13.10;91.70;;;;;;4904523;29;20079;-86
2022/10/06 01:49:56;;;;;;;2.65;0.47;;;13.00;91.80;;;;;;4886705;29;20399;-86
2022/10/06 01:52:39;;;;;;;4.05;0.77;;;13.00;91.80;;;;;;4889787;29;20125;-86
2022/10/06 01:55:19;;;;;;;2.25;0.43;;;13.00;91.80;;;;;;4887430;29;20064;-86
2022/10/06 01:57:56;;;;;;;6.80;0.50;;;13.10;91.70;;;;;;4902437;29;20143;-86
2022/10/06 02:01:27;;;;;;;4.53;0.63;;;13.10;91.70;;;;;;4903526;29;20048;-85
2022/10/06 02:04:29;;;;;;;2.70;0.30;;;13.20;91.60;;;;;;4860728;29;20053;-86
2022/10/06 02:07:59;;;;;;;3.17;0.32;;;13.20;91.50;;;;;;4851739;29;20131;-86
2022/10/06 02:11:05;;;;;;;;;;;;;;;;;;;;;
2022/10/06 02:13:57;;;;;;;5.55;0.30;;;13.10;91.40;;;;;;4882307;29;20440;-85
2022/10/06 02:16:50;;;;;;;4.25;0.30;;;13.00;91.50;;;;;;4860717;29;20053;-85
2022/10/06 02:19:27;;;;;;;3.88;0.40;;;12.90;91.60;;;;;;4877365;29;20044;-85
2022/10/06 02:22:02;;;;;;;6.95;0.50;;;12.90;91.60;;;;;;4891801;29;20041;-85
2022/10/06 02:24:37;;;;;;;3.40;0.30;;;12.90;91.70;;;;;;4893487;29;20532;-85
2022/10/06 02:27:15;;;;;;;5.60;0.47;;;12.80;91.70;;;;;;4866713;29;20056;-85
2022/10/06 02:29:52;;;;;;;2.55;0.40;;;12.80;91.70;;;;;;4897662;29;20080;-85
2022/10/06 02:32:24;;;;;;;1.45;0.28;;;12.70;91.80;;;;;;4901850;29;20054;-86
2022/10/06 02:34:59;;;;;;;2.05;0.20;;;12.70;91.80;;;;;;4920079;29;20043;-85
2022/10/06 02:37:33;;;;;;;3.65;0.35;;;12.70;91.90;;;;;;4920626;29;20068;-85
2022/10/06 02:40:12;;;;;;;5.70;0.70;;;12.60;91.90;;;;;;4905393;29;20048;-85
2022/10/06 02:42:44;;;;;;;6.07;0.70;;;12.60;91.80;;;;;;4905395;29;20068;-85
2022/10/06 02:45:20;;;;;;;4.15;0.40;;;12.60;91.80;;;;;;4905645;29;20054;-85
2022/10/06 02:48:33;;;;;;;5.35;0.30;;;12.60;91.80;;;;;;4890456;29;20399;-86
2022/10/06 02:51:15;;;;;;;2.80;0.40;;;12.60;91.70;;;;;;4912564;29;20075;-85
2022/10/06 02:53:47;;;;;;;5.47;0.50;;;12.50;91.80;;;;;;4920956;29;20125;-85
2022/10/06 02:56:19;;;;;;;1.52;0.38;;;12.50;91.80;;;;;;4920517;29;20075;-85
2022/10/06 02:58:56;;;;;;;1.67;0.30;;;12.50;91.80;;;;;;4920037;29;20062;-85
2022/10/06 03:01:29;;;;;;;5.72;0.30;;;12.40;91.90;;;;;;4905221;29;20430;-85
2022/10/06 03:04:16;;;;;;;1.70;0.20;;;12.30;91.90;;;;;;4905716;29;20508;-85
2022/10/06 03:06:44;;;;;;;2.13;0.25;;;12.30;91.90;;;;;;4904752;29;20058;-85
2022/10/06 03:09:27;;;;;;;4.60;0.50;;;12.30;92.00;;;;;;4905961;29;20071;-85
2022/10/06 03:12:03;;;;;;;3.28;0.80;;;12.30;92.00;;;;;;4904164;29;20044;-85
2022/10/06 03:14:37;;;;;;;4.72;0.63;;;12.30;91.90;;;;;;4904316;29;20048;-85
2022/10/06 03:17:15;;;;;;;2.78;0.30;;;12.20;91.90;;;;;;4904573;29;20071;-84
2022/10/06 03:19:55;;;;;;;4.18;0.75;;;12.20;91.90;;;;;;4905229;29;20055;-85
2022/10/06 03:22:28;;;;;;;3.55;0.30;;;12.20;92.00;;;;;;4904907;29;20052;-85
2022/10/06 03:24:58;;;;;;;5.43;0.50;;;12.10;92.00;;;;;;4906768;29;20071;-85
2022/10/06 03:27:26;;;;;;;5.38;0.60;;;12.10;92.00;;;;;;4920038;29;20054;-84
2022/10/06 03:29:59;;;;;;;5.13;0.50;;;12.10;92.00;;;;;;4919424;29;20044;-86
2022/10/06 03:32:28;;;;;;;2.90;0.30;;;12.00;92.00;;;;;;4904405;29;20083;-85
2022/10/06 03:34:56;;;;;;;7.63;0.40;;;12.00;92.00;;;;;;4904197;29;20440;-85
2022/10/06 03:37:27;;;;;;;2.03;0.22;;;12.00;92.00;;;;;;4903757;29;20134;-85
2022/10/06 03:40:00;;;;;;;1.40;0.20;;;12.00;92.00;;;;;;4904199;29;20142;-85
2022/10/06 03:42:32;;;;;;;2.67;0.10;;;12.00;92.00;;;;;;4919207;29;20044;-85
2022/10/06 03:45:00;;;;;;;1.65;0.10;;;12.00;92.10;;;;;;4903600;29;20407;-85
2022/10/06 03:47:30;;;;;;;1.67;0.28;;;11.90;92.00;;;;;;4903713;29;20054;-85
2022/10/06 03:50:00;;;;;;;3.17;0.30;;;11.90;92.00;;;;;;4918991;29;20044;-85
2022/10/06 03:52:32;;;;;;;3.35;0.20;;;11.90;92.10;;;;;;4903769;29;20048;-84
2022/10/06 03:55:00;;;;;;;3.47;0.30;;;11.90;92.10;;;;;;4907141;29;20086;-84
2022/10/06 03:57:31;;;;;;;2.83;0.40;;;11.90;92.10;;;;;;4903648;29;20052;-85
2022/10/06 04:00:03;;;;;;;2.15;0.20;;;11.90;92.00;;;;;;4918769;29;20561;-85
2022/10/06 04:02:38;;;;;;;4.10;0.50;;;11.90;92.00;;;;;;4920153;29;20053;-85
2022/10/06 04:05:08;;;;;;;6.22;0.70;;;11.90;92.00;;;;;;4903532;29;20119;-84
2022/10/06 04:07:35;;;;;;;3.42;0.40;;;11.80;92.00;;;;;;4897072;29;20055;-85
2022/10/06 04:10:10;;;;;;;1.63;0.30;;;11.80;92.00;;;;;;4918449;29;20143;-85
2022/10/06 04:12:45;;;;;;;2.92;0.22;;;11.70;92.00;;;;;;4897231;29;20050;-85
2022/10/06 04:15:13;;;;;;;1.77;0.20;;;11.80;92.10;;;;;;4918996;29;20119;-85
2022/10/06 04:17:40;;;;;;;1.70;0.20;;;11.70;92.10;;;;;;4903146;29;20075;-85
2022/10/06 04:20:07;;;;;;;2.47;0.20;;;11.70;92.20;;;;;;4917122;29;20051;-85
2022/10/06 04:22:34;;;;;;;3.03;0.40;;;11.60;92.20;;;;;;4919040;29;20055;-85
2022/10/06 04:25:02;;;;;;;4.28;0.45;;;11.60;92.40;;;;;;4902257;29;20173;-84
2022/10/06 04:27:29;;;;;;;1.63;0.20;;;11.60;92.20;;;;;;4918505;29;20058;-84
2022/10/06 04:30:06;;;;;;;3.33;0.20;;;11.60;92.30;;;;;;4918170;29;20044;-84
2022/10/06 04:32:39;;;;;;;4.35;0.17;;;11.50;92.30;;;;;;4912511;29;20082;-85
2022/10/06 04:35:07;;;;;;;3.40;0.13;;;11.50;92.40;;;;;;4918628;29;20504;-85
2022/10/06 04:37:37;;;;;;;3.25;0.32;;;11.40;92.40;;;;;;4901797;29;20504;-84
2022/10/06 04:40:10;;;;;;;1.92;0.20;;;11.40;92.40;;;;;;4918693;29;20123;-85
2022/10/06 04:42:42;;;;;;;1.98;0.10;;;11.40;92.50;;;;;;4906513;29;20051;-85
2022/10/06 04:45:14;;;;;;;3.50;0.43;;;11.40;92.70;;;;;;4904285;29;20043;-87
2022/10/06 04:47:48;;;;;;;2.72;0.30;;;11.30;92.50;;;;;;4918021;29;20078;-84
2022/10/06 04:50:19;;;;;;;3.22;0.30;;;11.40;92.50;;;;;;4903173;29;20107;-84
2022/10/06 04:53:04;;;;;;;1.52;0.38;;;11.30;92.40;;;;;;4918438;29;20143;-86
2022/10/06 04:55:33;;;;;;;2.70;0.45;;;11.30;92.40;;;;;;4892229;29;20527;-84
2022/10/06 04:58:03;;;;;;;4.50;0.45;;;11.30;92.40;;;;;;4887300;29;20043;-85
2022/10/06 05:00:31;;;;;;;3.58;0.40;;;11.30;92.40;;;;;;4917690;29;20568;-85
2022/10/06 05:02:58;;;;;;;1.98;0.63;;;11.30;92.50;;;;;;4917806;29;20050;-84
2022/10/06 05:05:26;;;;;;;3.90;0.38;;;11.20;92.40;;;;;;4920355;29;20423;-84
2022/10/06 05:07:55;;;;;;;2.53;0.30;;;11.20;92.50;;;;;;4902974;29;20066;-83
2022/10/06 05:10:22;;;;;;;4.57;0.50;;;11.20;92.50;;;;;;4917737;29;20476;-83
2022/10/06 05:12:49;;;;;;;2.67;0.22;;;11.20;92.50;;;;;;4899610;29;20064;-84
2022/10/06 05:15:17;;;;;;;2.65;0.30;;;11.20;92.50;;;;;;4908374;29;20075;-83
2022/10/06 05:17:44;;;;;;;2.78;0.20;;;11.20;92.50;;;;;;4923251;29;20051;-83
2022/10/06 05:20:12;;;;;;;4.95;0.47;;;11.20;92.50;;;;;;4887514;29;20052;-83
2022/10/06 05:22:39;;;;;;;4.63;0.35;;;11.10;92.50;;;;;;4902482;29;20070;-83
2022/10/06 05:25:07;;;;;;;3.00;0.20;;;11.10;92.50;;;;;;4918037;29;20555;-83
2022/10/06 05:27:34;;;;;;;1.27;0.15;;;11.10;92.50;;;;;;4902469;29;20518;-84
2022/10/06 05:30:01;;;;;;;1.58;0.20;;;11.10;92.60;;;;;;4902322;29;20500;-84
2022/10/06 05:32:28;;;;;;;1.30;0.20;;;11.00;92.60;;;;;;4902252;29;20047;-83
2022/10/06 05:35:02;;;;;;;2.83;0.28;;;11.00;92.60;;;;;;4903457;29;20074;-83
2022/10/06 05:37:29;;;;;;;3.47;0.20;;;11.00;92.70;;;;;;4904596;29;20419;-83
2022/10/06 05:39:56;;;;;;;2.13;0.20;;;10.90;92.70;;;;;;4905847;29;20511;-85
2022/10/06 05:42:23;;;;;;;1.90;0.13;;;10.90;92.70;;;;;;4906212;29;20052;-84
2022/10/06 05:44:56;;;;;;;1.30;0.10;;;10.90;92.70;;;;;;4922107;29;20055;-85
2022/10/06 05:47:24;;;;;;;0.75;0.13;;;10.80;92.70;;;;;;4921752;29;20448;-89
2022/10/06 05:49:51;;;;;;;3.40;0.20;;;10.80;92.80;;;;;;4905825;29;20044;-85
2022/10/06 05:52:18;;;;;;;2.70;0.20;;;10.80;92.80;;;;;;4905675;29;20913;-85
2022/10/06 05:54:45;;;;;;;2.75;0.10;;;10.70;92.80;;;;;;4905724;29;20043;-85
2022/10/06 05:57:12;;;;;;;2.22;0.35;;;10.70;92.80;;;;;;4890929;29;20134;-85
2022/10/06 05:59:39;;;;;;;6.57;0.45;;;10.70;92.80;;;;;;4905682;29;20522;-85
2022/10/06 06:02:08;;;;;;;1.67;0.20;;;10.80;92.80;;;;;;4905278;29;20144;-84
2022/10/06 06:04:40;;;;;;;1.27;0.45;;;10.80;92.80;;;;;;4921289;29;20139;-84
2022/10/06 06:07:08;;;;;;;1.70;0.20;;;10.80;92.80;;;;;;4905785;29;20051;-84
2022/10/06 06:09:37;;;;;;;4.95;0.40;;;10.80;92.80;;;;;;4905325;29;20400;-84
2022/10/06 06:12:04;;;;;;;4.07;0.70;;;10.90;92.80;;;;;;4905749;29;20047;-85
2022/10/06 06:17:30;;;;;;;2.50;0.25;;;10.90;92.70;;;;;;4920834;29;19930;-84
2022/10/06 06:19:57;;;;;;;4.43;0.40;;;10.90;92.60;;;;;;4920654;29;20079;-84
2022/10/06 06:22:25;;;;;;;2.38;0.30;;;10.90;92.60;;;;;;4889914;29;20530;-84
2022/10/06 06:24:52;;;;;;;1.23;0.30;;;10.90;92.60;;;;;;4904980;29;20048;-84
2022/10/06 06:27:19;;;;;;;2.63;0.28;;;11.00;92.60;;;;;;4905131;29;20048;-84
2022/10/06 06:29:48;;;;;;;0.95;0.30;;;11.00;92.60;;;;;;4905180;29;20048;-84
2022/10/06 06:32:15;;;;;;;3.15;0.28;;;11.00;92.60;;;;;;4905320;29;20559;-84
2022/10/06 06:34:42;;;;;;;6.13;0.50;;;11.00;92.50;;;;;;4905375;29;20040;-84
2022/10/06 06:37:10;;;;;;;4.60;0.52;;;11.10;92.50;;;;;;4904996;29;20460;-85
2022/10/06 06:39:43;;;;;;;4.60;0.85;;;11.10;92.50;;;;;;4905558;29;20051;-84
2022/10/06 06:42:10;;;;;;;3.55;0.43;;;11.10;92.50;;;;;;4889107;29;20139;-84
2022/10/06 06:44:38;;;;;;;3.60;0.60;;;11.20;92.50;;;;;;4904790;29;20401;-84
2022/10/06 06:47:29;;;;;;;5.93;0.85;;;11.20;92.40;;;;;;4903293;29;20120;-84
2022/10/06 06:49:59;;;;;;;3.65;0.60;;;11.30;92.40;;;;;;4904486;29;20040;-84
2022/10/06 06:52:28;;;;;;;4.18;0.60;;;11.30;92.30;;;;;;4904741;29;20051;-84
2022/10/06 06:54:58;;;;;;;4.15;0.60;;;11.30;92.30;;;;;;4904936;29;20044;-85
2022/10/06 06:57:26;;;;;;;2.08;0.43;;;11.40;92.30;;;;;;4904862;29;20043;-84
2022/10/06 07:00:01;;;;;;;4.68;0.30;;;11.40;92.30;;;;;;4920042;29;20060;-84
2022/10/06 07:02:30;;;;;;;6.05;0.70;;;11.50;92.30;;;;;;4920015;29;20047;-84
2022/10/06 07:04:59;;;;;;;4.03;0.60;;;11.50;92.20;;;;;;4904562;29;20055;-85
2022/10/06 07:07:26;;;;;;;4.18;0.52;;;11.60;92.20;;;;;;4888902;29;20099;-85
2022/10/06 07:09:53;;;;;;;3.88;1.33;;;11.60;92.10;;;;;;4904563;29;20044;-84
2022/10/06 07:12:24;;;;;;;5.10;0.85;;;11.60;92.10;;;;;;4904495;29;20044;-84
2022/10/06 07:26:09;;;;;;;3.90;0.70;;;11.80;91.80;;;;;;4919962;29;20070;-84
2022/10/06 07:28:41;;;;;;;6.55;0.80;;;11.90;91.80;;;;;;4904012;29;20062;-84
2022/10/06 07:31:09;;;;;;;6.88;0.98;;;11.90;91.70;;;;;;4904635;29;20741;-84
2022/10/06 07:33:39;;;;;;;6.22;1.30;;;12.00;91.70;;;;;;4904050;29;20054;-84
2022/10/06 07:36:07;;;;;;;8.18;1.45;;;12.00;91.60;;;;;;4903951;29;20044;-84
2022/10/06 07:38:35;;;;;;;6.38;1.10;;;12.00;91.60;;;;;;4903909;29;20372;-84
2022/10/06 07:41:02;;;;;;;7.15;1.17;;;12.10;91.60;;;;;;4903759;29;20388;-84
2022/10/06 07:43:53;;;;;;;4.40;1.00;;;12.10;91.50;;;;;;4907561;29;20050;-84
2022/10/06 07:46:22;;;;;;;5.25;0.75;;;12.20;91.50;;;;;;4904031;29;20059;-83
2022/10/06 07:48:59;;;;;;;5.57;1.00;;;12.20;91.50;;;;;;4918977;29;20047;-84
2022/10/06 07:51:26;;;;;;;9.60;1.08;;;12.30;91.40;;;;;;4903430;29;20052;-84
2022/10/06 07:53:55;;;;;;;9.60;1.20;;;12.30;91.40;;;;;;4919116;29;20139;-84
2022/10/06 07:56:48;;;;;;;;;;;12.30;91.30;;;;;;4923108;29;20504;-84
2022/10/06 07:59:15;;;;;;;8.45;1.80;;;12.40;91.20;;;;;;4918738;29;19923;-84
2022/10/06 08:01:44;;;;;;;7.35;1.45;;;12.40;91.10;;;;;;4888514;29;20055;-84
2022/10/06 08:04:12;;;;;;;8.40;1.42;;;12.50;91.10;;;;;;4903159;29;20047;-84
2022/10/06 08:06:40;;;;;;;7.78;1.20;;;12.50;91.00;;;;;;4903197;29;20099;-84
2022/10/06 08:09:07;;;;;;;6.25;0.98;;;12.50;91.10;;;;;;4903239;29;20052;-84
2022/10/06 08:11:34;;;;;;;5.53;0.85;;;12.60;91.00;;;;;;4903460;29;20449;-84
2022/10/06 08:14:02;;;;;;;8.32;1.55;;;12.60;91.00;;;;;;4904071;29;20048;-92
2022/10/06 08:16:29;;;;;;;8.55;1.42;;;12.70;90.90;;;;;;4889316;29;20094;-92
2022/10/06 08:18:58;;;;;;;10.43;1.20;;;12.70;90.80;;;;;;4920332;29;20111;-90
2022/10/06 08:21:28;;;;;;;10.90;1.98;;;12.80;90.70;;;;;;4920049;29;20058;-89
2022/10/06 08:23:56;;;;;;;5.57;0.93;;;12.90;90.70;;;;;;4903201;29;20099;-82
2022/10/06 08:26:25;;;;;;;10.20;1.30;;;12.90;90.50;;;;;;4919326;29;20082;-82
2022/10/06 08:28:54;;;;;;;6.28;1.00;;;13.00;90.50;;;;;;4918587;29;20047;-82
2022/10/06 08:31:22;;;;;;;6.15;0.90;;;13.00;90.50;;;;;;4887264;29;20620;-84
2022/10/06 08:33:54;;;;;;;6.40;1.13;;;13.10;90.40;;;;;;4902948;29;20488;-83
2022/10/06 08:36:25;;;;;;;5.18;1.10;;;13.10;90.40;;;;;;4918452;29;20485;-82
2022/10/06 08:38:57;;;;;;;6.00;1.20;;;13.20;90.30;;;;;;4903578;29;20123;-83
2022/10/06 08:41:45;;;;;;;9.57;1.10;;;13.30;90.20;;;;;;4903096;29;20472;-80
2022/10/06 08:44:30;;;;;;;5.30;1.10;;;13.40;90.10;;;;;;4902576;29;20054;-82
2022/10/06 08:47:04;;;;;;;5.72;0.88;;;13.40;90.10;;;;;;4935428;29;20047;-82
2022/10/06 08:49:38;;;;;;;4.03;1.27;;;13.50;90.00;;;;;;4918129;29;20054;-83
2022/10/06 08:52:46;;;;;;;6.03;0.80;;;13.50;89.70;;;;;;4918468;29;20090;-82
2022/10/06 08:55:28;;;;;;;5.10;1.50;;;13.60;89.60;;;;;;4918096;29;20046;-83
2022/10/06 08:58:27;;;;;;;3.13;0.90;;;13.60;89.30;;;;;;4899345;29;20405;-82
2022/10/06 09:01:25;;;;;;;7.60;1.10;;;13.70;89.20;;;;;;4932254;29;20051;-82
2022/10/06 09:03:57;;;;;;;5.35;1.00;;;13.80;88.70;;;;;;4917882;29;20055;-82
2022/10/06 09:06:36;;;;;;;7.60;1.02;;;13.80;88.80;;;;;;4918299;29;20087;-83
2022/10/06 09:09:24;;;;;;;8.05;1.10;;;13.90;88.50;;;;;;4918448;29;20052;-83
2022/10/06 09:12:14;;;;;;;6.95;0.85;;;14.00;87.80;;;;;;4894554;29;20111;-82
2022/10/06 09:15:14;;;;;;;8.88;1.00;;;14.00;87.40;;;;;;4922088;29;20052;-83
2022/10/06 09:17:54;;;;;;;5.47;0.80;;;14.10;87.20;;;;;;4921377;29;20052;-83
2022/10/06 09:20:36;;;;;;;4.30;0.55;;;14.20;87.40;;;;;;4921801;29;20048;-79
2022/10/06 09:23:05;;;;;;;6.15;1.25;;;14.20;86.90;;;;;;4921744;29;20071;-79
2022/10/06 09:25:32;;;;;;;7.95;1.00;;;14.30;86.60;;;;;;4921633;29;20047;-79
2022/10/06 09:28:02;;;;;;;8.40;1.17;;;14.40;86.20;;;;;;4921798;29;20050;-79
2022/10/06 09:30:29;;;;;;;7.53;1.08;;;14.40;85.60;;;;;;4906109;29;20105;-80
2022/10/06 09:33:02;;;;;;;5.75;0.50;;;14.50;85.30;;;;;;4905778;29;20052;-83
2022/10/06 09:35:30;;;;;;;6.18;1.23;;;14.60;84.90;;;;;;4938717;29;20475;-83
2022/10/06 09:38:03;;;;;;;5.55;0.80;;;14.60;84.40;;;;;;4921418;29;20040;-83
2022/10/06 09:40:50;;;;;;;5.20;1.15;;;14.70;84.20;;;;;;4935863;29;20135;-83
2022/10/06 09:43:27;;;;;;;7.53;0.88;;;14.70;84.00;;;;;;4921587;29;20110;-84
2022/10/06 09:46:16;;;;;;;6.97;1.25;;;14.80;83.10;;;;;;4921400;29;20368;-83
2022/10/06 09:48:43;;;;;;;6.32;0.57;;;14.80;82.80;;;;;;4919541;29;20082;-83
2022/10/06 09:51:16;;;;;;;5.90;0.70;;;14.80;82.50;;;;;;4929348;29;20400;-84
2022/10/06 09:54:01;;;;;;;8.15;0.77;;;14.90;82.30;;;;;;4938150;29;20399;-83
2022/10/06 09:56:31;;;;;;;3.85;0.50;;;14.90;81.90;;;;;;4911497;29;20066;-83
2022/10/06 09:59:00;;;;;;;5.72;0.63;;;15.00;81.90;;;;;;4915278;29;20043;-83
2022/10/06 10:01:30;;;;;;;4.85;0.50;;;15.10;81.70;;;;;;4905587;29;20134;-84
2022/10/06 10:04:07;;;;;;;3.92;0.70;;;15.10;81.60;;;;;;4905379;29;20100;-83
2022/10/06 10:06:47;;;;;;;4.95;0.93;;;15.10;80.80;;;;;;4920242;29;20124;-83
2022/10/06 10:09:23;;;;;;;4.88;0.60;;;15.00;80.50;;;;;;4937914;29;20396;-84
2022/10/06 10:12:23;;;;;;;3.00;0.52;;;15.00;79.70;;;;;;4920472;29;20461;-83
2022/10/06 10:14:51;;;;;;;5.75;0.60;;;15.10;79.80;;;;;;4920691;29;20133;-82
2022/10/06 10:17:23;;;;;;;7.20;0.70;;;15.10;79.60;;;;;;4921177;29;20127;-87
2022/10/06 10:19:53;;;;;;;4.28;0.60;;;15.20;79.30;;;;;;4920996;29;20047;-81
2022/10/06 10:22:35;;;;;;;5.40;0.52;;;15.30;79.00;;;;;;4904879;29;20790;-82
2022/10/06 10:25:29;;;;;;;5.57;0.65;;;15.40;79.00;;;;;;4920645;29;20062;-88
2022/10/06 10:28:35;;;;;;;6.70;0.60;;;15.40;78.20;;;;;;4933729;29;20054;-86
2022/10/06 10:31:16;;;;;;;5.20;0.57;;;15.50;77.10;;;;;;4877277;29;20048;-86
2022/10/06 10:34:04;;;;;;;6.47;0.40;;;15.60;76.90;;;;;;4921004;29;20054;-85
2022/10/06 10:36:56;;;;;;;6.93;0.82;;;15.60;76.50;;;;;;4920842;29;20146;-87
2022/10/06 10:39:36;;;;;;;7.20;0.75;;;15.60;76.80;;;;;;4905124;29;20090;-86
2022/10/06 10:42:14;;;;;;;6.00;1.00;;;15.80;76.60;;;;;;4908256;29;20142;-87
2022/10/06 10:44:52;;;;;;;6.28;1.10;;;15.90;75.70;;;;;;4921065;29;20082;-87
2022/10/06 10:47:26;;;;;;;4.03;0.50;;;15.90;75.80;;;;;;4920678;29;20110;-86
2022/10/06 10:50:19;;;;;;;3.80;0.60;;;16.00;76.30;;;;;;4937442;29;20050;-88
2022/10/06 10:52:49;;;;;;;3.83;0.40;;;16.00;76.10;;;;;;4925124;29;20126;-88
2022/10/06 10:55:25;;;;;;;4.10;0.90;;;15.90;76.00;;;;;;4921185;29;20048;-89
2022/10/06 10:58:25;;;;;;;6.65;0.65;;;15.90;75.30;;;;;;4920717;29;20043;-88
2022/10/06 11:00:57;;;;;;;5.85;0.60;;;15.90;75.30;;;;;;4930597;29;20464;-89
2022/10/06 11:03:24;;;;;;;7.23;1.57;;;15.90;75.40;;;;;;4928714;29;20062;-89
2022/10/06 11:06:13;;;;;;;6.68;0.90;;;16.00;74.60;;;;;;4920678;29;20354;-88
2022/10/06 11:09:07;;;;;;;2.03;0.82;;;16.20;74.80;;;;;;4936846;29;20050;-89
2022/10/06 11:12:07;;;;;;;5.85;0.52;;;16.20;73.80;;;;;;4936552;29;20138;-89
2022/10/06 11:14:37;;;;;;;6.57;0.60;;;16.10;73.60;;;;;;4936803;29;20496;-90
2022/10/06 11:17:38;;;;;;;3.33;0.60;;;16.00;73.60;;;;;;4936540;29;20059;-82
2022/10/06 11:20:44;;;;;;;3.25;0.47;;;15.90;73.90;;;;;;4914111;29;20492;-82
2022/10/06 11:23:36;;;;;;;6.03;0.45;;;15.70;74.10;;;;;;4928739;29;20083;-82
2022/10/06 11:26:08;;;;;;;6.07;0.50;;;15.60;74.40;;;;;;4935455;29;20416;-82
2022/10/06 11:28:38;;;;;;;3.92;0.68;;;15.60;74.20;;;;;;4935411;29;20055;-81
2022/10/06 11:31:31;;;;;;;6.97;0.65;;;15.60;74.20;;;;;;4935111;29;20123;-82
2022/10/06 11:34:00;;;;;;;3.13;0.40;;;15.60;73.90;;;;;;4910341;29;20062;-81
2022/10/06 11:37:04;;;;;;;3.28;0.47;;;15.70;73.70;;;;;;4918938;29;20048;-82
2022/10/06 11:40:13;;;;;;;6.57;1.17;;;15.80;73.10;;;;;;4929299;29;20130;-82
2022/10/06 11:42:48;;;;;;;4.05;0.50;;;15.80;72.60;;;;;;4928465;29;20081;-81
2022/10/06 11:45:18;;;;;;;2.53;0.40;;;15.70;72.80;;;;;;4935069;29;20044;-81
2022/10/06 11:47:59;;;;;;;2.80;0.52;;;15.60;73.10;;;;;;4919807;29;20062;-80
2022/10/06 11:50:47;;;;;;;2.67;0.40;;;15.70;73.10;;;;;;4934672;29;20131;-82
2022/10/06 11:53:41;;;;;;;3.67;1.00;;;15.60;73.40;;;;;;4934745;29;20039;-82
2022/10/06 11:56:17;;;;;;;3.55;0.52;;;15.60;73.90;;;;;;4935539;29;20048;-81
2022/10/06 11:58:50;;;;;;;4.22;0.30;;;15.70;73.20;;;;;;4934228;29;20083;-81
2022/10/06 12:01:29;;;;;;;4.53;0.77;;;15.80;72.90;;;;;;4933791;29;20115;-81
2022/10/06 12:04:17;;;;;;;3.50;0.47;;;16.00;71.90;;;;;;4933999;29;20086;-81
2022/10/06 12:06:52;;;;;;;5.38;0.90;;;16.10;71.90;;;;;;4919717;29;20054;-80
2022/10/06 12:09:31;;;;;;;4.22;0.50;;;16.20;71.80;;;;;;4918461;29;20569;-80
2022/10/06 12:12:05;;;;;;;3.08;0.32;;;16.30;72.00;;;;;;4917456;29;20044;-80
2022/10/06 12:14:58;;;;;;;6.65;0.68;;;16.30;72.00;;;;;;4933012;29;20047;-80
2022/10/06 12:18:00;;;;;;;3.35;0.50;;;16.30;71.80;;;;;;4947497;29;20048;-80
2022/10/06 12:20:36;;;;;;;2.88;0.60;;;16.30;71.20;;;;;;4934138;29;20047;-80
2022/10/06 12:23:33;;;;;;;5.35;0.50;;;16.30;69.70;;;;;;4934297;29;20150;-80
2022/10/06 12:26:58;;;;;;;3.03;0.40;;;16.20;69.00;;;;;;4934424;29;20452;-80
2022/10/06 12:29:35;;;;;;;4.35;0.35;;;16.20;69.00;;;;;;4853014;29;20139;-80
2022/10/06 12:32:32;;;;;;;3.85;0.50;;;16.00;69.70;;;;;;4861178;29;20061;-80
2022/10/06 12:35:02;;;;;;;5.05;1.08;;;16.00;69.50;;;;;;4913336;29;20138;-84
2022/10/06 12:37:35;;;;;;;2.53;0.95;;;15.90;69.50;;;;;;4918301;29;20048;-83
2022/10/06 12:40:40;;;;;;;5.05;0.38;;;15.90;69.70;;;;;;4934236;29;20050;-83
2022/10/06 12:43:13;;;;;;;2.20;0.40;;;16.00;70.00;;;;;;4932323;29;20405;-82
2022/10/06 12:45:54;;;;;;;2.97;0.40;;;16.00;70.00;;;;;;4933777;29;20103;-82
2022/10/06 12:48:27;;;;;;;1.77;0.50;;;16.10;69.70;;;;;;4930841;29;20637;-82
2022/10/06 12:51:01;;;;;;;3.17;0.60;;;16.30;69.40;;;;;;4935496;29;20426;-82
2022/10/06 12:53:33;;;;;;;4.03;0.35;;;16.50;69.60;;;;;;4934096;29;20564;-81
2022/10/06 12:56:03;;;;;;;2.75;0.30;;;16.60;69.20;;;;;;4933973;29;20146;-81
2022/10/06 12:58:32;;;;;;;3.22;0.50;;;16.90;69.40;;;;;;4935340;29;20048;-80
2022/10/06 13:01:11;;;;;;;7.70;0.73;;;17.00;68.80;;;;;;4918468;29;20493;-81
2022/10/06 13:03:38;;;;;;;5.63;0.93;;;17.20;69.20;;;;;;4934218;29;20086;-81
2022/10/06 13:06:08;;;;;;;4.60;0.63;;;17.00;68.40;;;;;;4918400;29;20047;-80
2022/10/06 13:08:37;;;;;;;4.55;0.80;;;16.90;68.90;;;;;;4934164;29;20050;-81
2022/10/06 13:11:29;;;;;;;2.83;0.40;;;16.80;68.80;;;;;;4917979;29;20090;-82
2022/10/06 13:14:05;;;;;;;5.32;0.40;;;16.70;69.20;;;;;;4918352;29;20048;-80
2022/10/06 13:16:38;;;;;;;4.80;0.45;;;16.50;69.60;;;;;;4937359;29;20135;-79
2022/10/06 13:19:22;;;;;;;2.70;0.43;;;16.50;69.80;;;;;;4934917;29;20487;-81
2022/10/06 13:21:49;;;;;;;4.53;0.40;;;16.40;69.80;;;;;;4922745;29;20079;-78
2022/10/06 13:24:24;;;;;;;3.70;0.90;;;16.40;69.80;;;;;;4933776;29;20040;-80
2022/10/06 13:26:52;;;;;;;2.17;0.45;;;16.30;69.80;;;;;;4935285;29;20044;-81
2022/10/06 13:29:24;;;;;;;4.18;0.70;;;16.20;69.90;;;;;;4934002;29;20039;-82
2022/10/06 13:31:55;;;;;;;3.85;0.80;;;16.30;69.40;;;;;;4933757;29;20139;-81
2022/10/06 13:34:41;;;;;;;4.07;0.40;;;16.30;68.80;;;;;;4918360;29;20094;-82
2022/10/06 13:37:13;;;;;;;3.45;0.50;;;16.30;68.50;;;;;;4903326;29;20492;-82
2022/10/06 13:39:40;;;;;;;2.72;0.45;;;16.40;68.00;;;;;;4918069;29;20039;-81
2022/10/06 13:42:16;;;;;;;2.38;0.60;;;16.40;68.00;;;;;;4918048;29;20044;-82
2022/10/06 13:44:53;;;;;;;4.18;0.30;;;16.60;68.10;;;;;;4933634;29;20098;-81
2022/10/06 13:47:23;;;;;;;1.48;0.30;;;16.70;67.70;;;;;;4918083;29;20097;-81
2022/10/06 13:50:00;;;;;;;2.33;0.40;;;16.70;67.80;;;;;;4933511;29;20516;-80
2022/10/06 13:52:39;;;;;;;3.22;0.50;;;16.80;67.50;;;;;;4933684;29;20111;-81
2022/10/06 13:55:21;;;;;;;2.53;0.50;;;16.90;67.00;;;;;;4933734;29;20052;-80
2022/10/06 13:57:57;;;;;;;5.72;0.50;;;17.00;66.80;;;;;;4919063;29;20048;-82
2022/10/06 14:00:29;;;;;;;3.10;0.60;;;17.00;67.10;;;;;;4929602;29;20497;-81
2022/10/06 14:03:06;;;;;;;4.38;0.50;;;17.20;66.80;;;;;;4908662;29;20114;-81
2022/10/06 14:05:37;;;;;;;3.00;0.50;;;17.30;66.80;;;;;;4912735;29;20432;-81
2022/10/06 14:08:10;;;;;;;2.85;0.40;;;17.40;65.60;;;;;;4905466;29;20062;-83
2022/10/06 14:10:56;;;;;;;4.22;0.30;;;17.40;65.20;;;;;;4903611;29;20129;-84